Time;durP1;ratioP1;P1;durP2;ratioP2;P2;SDS_P1;SDS_P2;PMS_P1;PMS_P2;Temp;Humidity;BMP_temperature;BMP_pressure;BME280_temperature;BME280_humidity;BME280_pressure;Samples;Min_cycle;Max_cycle;Signal;HPM_P1;HPM_P2
2022/12/15 00:39:26;;;;;;;20.73;12.60;;;-0.80;99.90;;;-2.31;100.00;96116.50;5013089;28;20395;-74
2022/12/15 00:41:52;;;;;;;18.58;11.20;;;-0.90;99.90;;;-2.30;100.00;96115.50;5012362;28;20413;-74
2022/12/15 00:44:19;;;;;;;17.30;10.57;;;-0.80;99.90;;;-2.31;100.00;96129.47;5012751;28;20467;-75
2022/12/15 00:46:53;;;;;;;15.68;9.18;;;-0.90;99.90;;;-2.30;100.00;96132.84;5012828;28;20492;-74
2022/12/15 01:22:24;;;;;;;27.08;15.30;;;-0.90;99.90;;;-2.30;100.00;96154.38;5011532;28;20980;-74
2022/12/15 01:24:50;;;;;;;24.87;14.03;;;-0.80;99.90;;;-2.30;100.00;96153.59;5011975;28;20409;-73
2022/12/15 01:27:16;;;;;;;23.35;13.48;;;-0.80;99.90;;;-2.29;100.00;96158.56;5012118;28;20466;-75
2022/12/15 01:29:43;;;;;;;24.25;13.75;;;-0.80;99.90;;;-2.29;100.00;96162.97;4994427;28;20432;-75
2022/12/15 01:32:08;;;;;;;21.40;12.53;;;-0.80;99.90;;;-2.28;100.00;96167.94;5011334;28;20940;-75
2022/12/15 01:34:34;;;;;;;17.40;10.63;;;-0.80;99.90;;;-2.27;100.00;96168.75;5011829;28;20452;-74
2022/12/15 01:37:02;;;;;;;25.07;14.07;;;-0.80;99.90;;;-2.28;100.00;96165.34;5012147;28;20409;-74
2022/12/15 01:40:43;;;;;;;23.30;13.50;;;-0.80;99.90;;;-2.28;100.00;96157.59;5011852;28;20779;-74
2022/12/15 01:42:13;;;;;;;20.17;11.88;;;-0.80;99.90;;;-2.27;100.00;96159.19;5010874;28;20618;-74
2022/12/15 01:44:39;;;;;;;21.10;12.52;;;-0.80;99.90;;;-2.28;100.00;96156.78;5011747;28;20523;-74
2022/12/15 01:47:10;;;;;;;18.52;11.00;;;-0.80;99.90;;;-2.27;100.00;96158.38;5010845;28;20405;-74
2022/12/15 01:49:36;;;;;;;16.80;9.70;;;-0.80;99.90;;;-2.26;100.00;96171.16;5011710;28;20444;-74
2022/12/15 01:52:07;;;;;;;19.08;11.27;;;-0.80;99.90;;;-2.25;100.00;96171.91;5010963;28;20808;-74
2022/12/15 01:54:40;;;;;;;18.40;10.95;;;-0.80;99.90;;;-2.26;100.00;96170.34;5011500;28;20400;-74
2022/12/15 01:57:13;;;;;;;19.58;11.00;;;-0.80;99.90;;;-2.27;100.00;96179.91;5011737;28;20466;-74
2022/12/15 01:59:49;;;;;;;21.38;12.05;;;-0.80;99.90;;;-2.27;100.00;96169.53;5011716;28;20405;-74
2022/12/15 02:02:17;;;;;;;21.70;12.20;;;-0.80;99.90;;;-2.27;100.00;96166.94;5010771;28;20407;-74
2022/12/15 02:04:44;;;;;;;19.35;11.40;;;-0.80;99.90;;;-2.26;100.00;96173.72;5011204;28;20485;-74
2022/12/15 02:07:13;;;;;;;18.73;11.07;;;-0.80;99.90;;;-2.26;100.00;96180.72;5011234;28;20412;-74
2022/12/15 02:09:40;;;;;;;16.60;9.88;;;-0.80;99.90;;;-2.26;100.00;96178.91;5011310;28;20836;-74
2022/12/15 02:12:19;;;;;;;13.65;8.60;;;-0.80;99.90;;;-2.25;100.00;96180.50;5010237;28;20499;-74
2022/12/15 02:15:03;;;;;;;14.55;9.10;;;-0.80;99.90;;;-2.24;100.00;96181.28;5011013;28;20755;-74
2022/12/15 02:17:39;;;;;;;15.40;9.63;;;-0.80;99.90;;;-2.25;100.00;96179.69;5011133;28;20419;-74
2022/12/15 02:20:44;;;;;;;17.05;10.38;;;-0.80;99.90;;;-2.25;100.00;96187.47;5011370;28;20412;-74
2022/12/15 02:23:51;;;;;;;20.50;11.63;;;-0.80;99.90;;;-2.28;100.00;96196.44;5010180;28;20412;-74
2022/12/15 02:26:41;;;;;;;21.13;11.93;;;-0.80;99.90;;;-2.28;100.00;96193.06;5011174;28;20423;-74
2022/12/15 02:29:22;;;;;;;26.35;13.57;;;-0.80;99.90;;;-2.28;100.00;96182.69;5011017;28;20817;-74
2022/12/15 02:31:55;;;;;;;24.63;13.68;;;-0.80;99.90;;;-2.29;100.00;96183.69;5010289;28;20405;-73
2022/12/15 02:34:33;;;;;;;28.52;15.68;;;-0.80;99.90;;;-2.29;100.00;96184.50;5010844;28;20763;-73
2022/12/15 02:37:04;;;;;;;23.85;13.13;;;-0.80;99.90;;;-2.29;100.00;96174.13;5011027;28;20397;-74
2022/12/15 02:39:30;;;;;;;23.65;13.63;;;-0.80;99.90;;;-2.29;100.00;96176.72;5010820;28;20400;-74
2022/12/15 02:41:56;;;;;;;25.50;13.95;;;-0.80;99.90;;;-2.28;100.00;96190.47;5009917;28;20488;-73
2022/12/15 02:44:29;;;;;;;22.70;13.18;;;-0.80;99.90;;;-2.30;100.00;96185.47;5010656;28;20409;-74
2022/12/15 02:47:17;;;;;;;25.05;14.27;;;-0.80;99.90;;;-2.30;100.00;96201.03;5010681;28;20401;-74
2022/12/15 02:50:02;;;;;;;24.80;13.95;;;-0.80;99.90;;;-2.29;100.00;96197.44;5010857;28;20511;-75
2022/12/15 02:52:46;;;;;;;26.53;15.37;;;-0.80;99.90;;;-2.29;100.00;96200.03;5009786;28;20956;-74
2022/12/15 02:55:19;;;;;;;27.65;15.63;;;-0.80;99.90;;;-2.30;100.00;96205.41;5010542;28;20400;-74
2022/12/15 02:57:54;;;;;;;24.08;13.15;;;-0.80;99.90;;;-2.30;100.00;96208.81;5010449;28;20405;-74
2022/12/15 03:00:21;;;;;;;22.15;12.32;;;-0.80;99.90;;;-2.30;100.00;96203.63;5010604;28;20385;-74
2022/12/15 03:02:52;;;;;;;18.73;12.03;;;-0.90;99.90;;;-2.29;100.00;96213.00;5009457;28;20419;-74
2022/12/15 03:05:20;;;;;;;21.08;11.90;;;-0.80;99.90;;;-2.29;100.00;96200.03;5010625;28;20883;-74
2022/12/15 03:07:49;;;;;;;23.40;13.55;;;-0.80;99.90;;;-2.29;100.00;96205.22;5010512;28;20416;-74
2022/12/15 03:10:15;;;;;;;23.67;13.00;;;-0.80;99.90;;;-2.29;100.00;96194.06;5010213;28;20421;-74
2022/12/15 03:12:41;;;;;;;21.08;11.90;;;-0.80;99.90;;;-2.28;100.00;96196.44;5009603;28;20413;-74
2022/12/15 03:15:08;;;;;;;18.67;10.80;;;-0.80;99.90;;;-2.27;100.00;96194.66;5010549;28;20415;-74
2022/12/15 03:17:34;;;;;;;16.60;9.82;;;-0.80;99.90;;;-2.28;100.00;96212.00;5010141;28;20914;-74
2022/12/15 03:20:02;;;;;;;20.83;11.90;;;-0.80;99.90;;;-2.27;100.00;96223.16;5010311;28;20432;-74
2022/12/15 03:22:27;;;;;;;18.05;10.82;;;-0.80;99.90;;;-2.27;100.00;96220.56;5009254;28;20413;-75
2022/12/15 03:24:53;;;;;;;18.58;10.75;;;-0.80;99.90;;;-2.27;100.00;96226.56;5010040;28;20437;-74
2022/12/15 03:27:19;;;;;;;29.08;15.52;;;-0.80;99.90;;;-2.28;100.00;96218.97;5010455;28;20413;-74
2022/12/15 03:29:45;;;;;;;38.22;19.42;;;-0.80;99.90;;;-2.28;100.00;96213.78;5010087;28;20507;-74
2022/12/15 03:32:11;;;;;;;34.03;18.60;;;-0.80;99.90;;;-2.29;100.00;96214.78;5009318;28;20412;-74
2022/12/15 03:34:37;;;;;;;29.08;16.13;;;-0.80;99.90;;;-2.29;100.00;96212.19;5009807;28;20455;-74
2022/12/15 03:37:04;;;;;;;30.30;16.48;;;-0.80;99.90;;;-2.30;100.00;96214.00;5010105;28;20775;-74
2022/12/15 03:39:30;;;;;;;27.77;15.67;;;-0.80;99.90;;;-2.29;100.00;96225.16;5010067;28;20436;-74
2022/12/15 03:41:56;;;;;;;32.00;16.38;;;-0.80;99.90;;;-2.31;100.00;96220.16;5009162;28;20842;-74
2022/12/15 03:44:22;;;;;;;29.33;15.17;;;-0.80;99.90;;;-2.31;100.00;96230.53;5009749;28;20819;-74
2022/12/15 03:46:48;;;;;;;29.50;15.30;;;-0.80;99.90;;;-2.31;100.00;96234.91;5009908;28;20782;-74
2022/12/15 03:49:14;;;;;;;27.67;14.73;;;-0.80;99.90;;;-2.31;100.00;96232.31;5009951;28;20444;-74
2022/12/15 03:51:40;;;;;;;26.65;14.23;;;-0.80;99.90;;;-2.32;100.00;96228.94;5009316;28;20420;-74
2022/12/15 03:54:07;;;;;;;28.13;15.33;;;-0.80;99.90;;;-2.31;100.00;96232.31;5009474;28;20845;-74
2022/12/15 03:56:33;;;;;;;26.30;15.23;;;-0.80;99.90;;;-2.33;100.00;96235.09;5009902;28;20485;-74
2022/12/15 03:58:59;;;;;;;24.50;14.35;;;-0.80;99.90;;;-2.31;100.00;96253.06;5009976;28;20986;-74
2022/12/15 04:01:28;;;;;;;25.90;14.73;;;-0.80;99.90;;;-2.31;100.00;96250.47;5009205;28;20835;-73
2022/12/15 04:03:54;;;;;;;26.77;14.07;;;-0.80;99.90;;;-2.30;100.00;96244.28;5009694;28;20409;-74
2022/12/15 04:06:20;;;;;;;22.65;12.65;;;-0.80;99.90;;;-2.30;100.00;96242.50;5009931;28;20426;-73
2022/12/15 04:08:46;;;;;;;17.92;10.90;;;-0.80;99.90;;;-2.29;100.00;96245.88;5009729;28;20399;-74
2022/12/15 04:11:14;;;;;;;19.38;11.00;;;-0.80;99.90;;;-2.28;100.00;96252.66;5012103;28;20424;-74
2022/12/15 04:13:40;;;;;;;25.92;13.68;;;-0.80;99.90;;;-2.27;100.00;96259.44;5013469;28;21113;-74
2022/12/15 04:16:06;;;;;;;32.25;16.25;;;-0.80;99.90;;;-2.28;100.00;96255.25;5013496;28;20591;-74
2022/12/15 04:18:33;;;;;;;32.92;17.50;;;-0.80;99.90;;;-2.27;100.00;96267.22;5013324;28;20416;-74
2022/12/15 04:20:58;;;;;;;31.40;17.13;;;-0.80;99.90;;;-2.27;100.00;96270.63;5013322;28;20496;-74
2022/12/15 04:23:24;;;;;;;32.45;17.10;;;-0.80;99.90;;;-2.27;100.00;96267.22;5012384;28;20515;-74
2022/12/15 05:32:07;;;;;;;26.65;14.27;;;-0.80;99.90;;;-2.29;100.00;96280.38;5007102;28;20472;-75
2022/12/15 05:34:36;;;;;;;28.07;14.80;;;-0.80;99.90;;;-2.29;100.00;96285.56;5010561;28;20408;-74
2022/12/15 05:37:04;;;;;;;25.17;13.50;;;-0.80;99.90;;;-2.29;100.00;96277.78;5003719;28;20495;-74
2022/12/15 05:39:30;;;;;;;22.92;12.55;;;-0.80;99.90;;;-2.27;100.00;96290.56;5001535;28;20416;-75
2022/12/15 05:41:56;;;;;;;21.00;11.60;;;-0.80;99.90;;;-2.26;100.00;96286.97;5006849;28;20499;-75
2022/12/15 05:44:24;;;;;;;19.38;10.88;;;-0.80;99.90;;;-2.26;100.00;96276.59;4985284;28;20982;-75
2022/12/15 05:46:50;;;;;;;18.38;10.77;;;-0.80;99.90;;;-2.26;100.00;96276.59;5000968;28;20425;-75
2022/12/15 05:49:17;;;;;;;23.07;12.20;;;-0.80;99.90;;;-2.25;100.00;96285.94;5008608;28;20413;-75
2022/12/15 05:51:46;;;;;;;21.45;11.35;;;-0.80;99.90;;;-2.24;100.00;96295.31;5008634;28;20895;-75
2022/12/15 05:54:16;;;;;;;21.58;11.35;;;-0.80;99.90;;;-2.25;100.00;96285.94;5009831;28;20479;-74
2022/12/15 05:56:42;;;;;;;22.92;11.85;;;-0.80;99.90;;;-2.24;100.00;96297.91;5011344;28;20428;-74
2022/12/15 05:59:08;;;;;;;22.73;12.32;;;-0.80;99.90;;;-2.23;100.00;96289.94;5006289;28;20470;-73
2022/12/15 06:01:35;;;;;;;20.75;11.82;;;-0.80;99.90;;;-2.23;100.00;96299.50;5009323;28;20891;-74
2022/12/15 06:04:01;;;;;;;31.02;15.65;;;-0.80;99.90;;;-2.23;100.00;96304.69;5005850;28;20509;-75
2022/12/15 06:06:28;;;;;;;41.25;20.70;;;-0.80;99.90;;;-2.25;100.00;96291.94;5004897;28;20452;-75
2022/12/15 06:08:55;;;;;;;40.97;19.83;;;-0.80;99.90;;;-2.27;100.00;96278.41;4989058;28;20881;-76
2022/12/15 06:11:21;;;;;;;34.13;17.25;;;-0.80;99.90;;;-2.28;100.00;96284.56;5022194;23;20910;-73
2022/12/15 06:13:48;;;;;;;35.20;18.63;;;-0.80;99.90;;;-2.29;100.00;96302.91;5020928;28;20480;-74
2022/12/15 06:16:16;;;;;;;32.40;16.30;;;-0.80;99.90;;;-2.30;100.00;96291.72;5024918;28;20451;-77
2022/12/15 06:18:44;;;;;;;36.22;17.75;;;-0.80;99.90;;;-2.30;100.00;96309.88;5026970;28;20411;-75
2022/12/15 06:21:13;;;;;;;35.53;17.70;;;-0.80;99.90;;;-2.30;100.00;96309.06;5029404;28;20430;-73
2022/12/15 06:23:41;;;;;;;30.45;15.48;;;-0.80;99.90;;;-2.30;100.00;96306.50;5009156;28;20416;-73
2022/12/15 06:26:13;;;;;;;30.08;15.30;;;-0.80;99.90;;;-2.30;100.00;96298.72;5007262;28;20420;-73
2022/12/15 06:28:40;;;;;;;26.08;13.98;;;-0.80;99.90;;;-2.28;100.00;96314.88;5005994;28;20465;-72
2022/12/15 06:31:09;;;;;;;52.10;24.20;;;-0.80;99.90;;;-2.28;100.00;96312.28;5009389;28;20505;-73
2022/12/15 06:33:36;;;;;;;50.83;24.73;;;-0.80;99.90;;;-2.29;100.00;96295.94;5008210;28;20954;-73
2022/12/15 06:36:04;;;;;;;37.70;19.37;;;-0.80;99.90;;;-2.28;100.00;96301.91;5009607;28;20417;-73
2022/12/15 06:38:31;;;;;;;36.65;18.77;;;-0.80;99.90;;;-2.28;100.00;96307.91;4991849;28;20849;-72
2022/12/15 06:40:58;;;;;;;30.88;16.38;;;-0.80;99.90;;;-2.26;100.00;96307.69;5002252;28;20427;-73
2022/12/15 06:43:25;;;;;;;24.50;13.75;;;-0.80;99.90;;;-2.25;100.00;96306.69;5000686;28;20409;-73
2022/12/15 06:45:51;;;;;;;24.33;12.87;;;-0.80;99.90;;;-2.24;100.00;96314.28;5000798;28;20408;-74
2022/12/15 06:48:18;;;;;;;20.65;11.20;;;-0.80;99.90;;;-2.23;100.00;96307.28;4999591;28;20434;-73
2022/12/15 06:50:44;;;;;;;22.52;11.77;;;-0.80;99.90;;;-2.24;100.00;96321.25;5002164;28;20454;-73
2022/12/15 06:53:10;;;;;;;42.30;20.92;;;-0.80;99.90;;;-2.26;100.00;96308.50;4999339;28;20843;-73
2022/12/15 06:55:36;;;;;;;38.45;19.45;;;-0.80;99.90;;;-2.26;100.00;96297.34;5001163;28;20409;-73
2022/12/15 06:58:02;;;;;;;28.75;16.08;;;-0.80;99.90;;;-2.27;100.00;96285.38;5003598;28;20408;-73
2022/12/15 07:00:29;;;;;;;24.65;13.82;;;-0.80;99.90;;;-2.27;100.00;96285.38;5006656;28;20488;-73
2022/12/15 07:02:55;;;;;;;23.45;12.43;;;-0.80;99.90;;;-2.28;100.00;96270.81;5006218;28;20405;-73
2022/12/15 07:05:21;;;;;;;29.20;15.27;;;-0.80;99.90;;;-2.28;100.00;96291.53;5006320;28;20432;-73
2022/12/15 07:07:47;;;;;;;25.75;13.95;;;-0.80;99.90;;;-2.28;100.00;96301.91;4999773;28;20438;-72
2022/12/15 07:10:13;;;;;;;27.90;15.25;;;-0.80;99.90;;;-2.28;100.00;96309.69;4999481;28;20424;-72
2022/12/15 07:12:39;;;;;;;27.13;14.80;;;-0.80;99.90;;;-2.29;100.00;96310.69;5000141;28;20989;-72
2022/12/15 07:15:07;;;;;;;28.60;14.88;;;-0.80;99.90;;;-2.29;100.00;96311.47;4999421;28;20489;-72
2022/12/15 07:17:34;;;;;;;27.20;14.45;;;-0.80;99.90;;;-2.28;100.00;96312.28;5004142;28;20404;-72
2022/12/15 07:20:00;;;;;;;25.98;14.50;;;-0.80;99.90;;;-2.27;100.00;96301.72;5009448;28;20397;-71
2022/12/15 07:22:27;;;;;;;33.33;16.98;;;-0.80;99.90;;;-2.26;100.00;96298.13;5000215;28;20917;-73
2022/12/15 07:24:53;;;;;;;31.17;15.32;;;-0.80;99.90;;;-2.24;100.00;96316.84;5000346;28;20418;-73
2022/12/15 07:27:19;;;;;;;29.40;14.68;;;-0.80;99.90;;;-2.23;100.00;96328.81;4998804;28;20765;-72
2022/12/15 07:29:45;;;;;;;59.47;27.13;;;-0.80;99.90;;;-2.22;100.00;96314.06;5003588;28;20503;-74
2022/12/15 07:32:11;;;;;;;46.33;22.33;;;-0.70;99.90;;;-2.22;100.00;96314.88;5009284;28;20432;-74
2022/12/15 07:34:38;;;;;;;35.47;18.15;;;-0.80;99.90;;;-2.20;100.00;96315.50;5009789;28;20400;-73
2022/12/15 07:37:04;;;;;;;32.40;16.42;;;-0.70;99.90;;;-2.18;100.00;96321.25;5009911;28;20527;-73
2022/12/15 07:39:30;;;;;;;27.70;14.95;;;-0.70;99.90;;;-2.17;100.00;96312.47;5009947;28;20487;-73
2022/12/15 07:41:56;;;;;;;24.37;13.67;;;-0.70;99.90;;;-2.14;100.00;96326.84;5009158;28;20486;-74
2022/12/15 07:44:22;;;;;;;28.63;14.77;;;-0.70;99.90;;;-2.12;100.00;96328.25;5009815;28;20437;-74
2022/12/15 07:46:48;;;;;;;24.25;13.65;;;-0.70;99.90;;;-2.10;100.00;96315.88;5013391;28;20401;-74
2022/12/15 07:49:15;;;;;;;26.77;14.13;;;-0.70;99.90;;;-2.08;100.00;96313.91;5003206;28;20751;-75
2022/12/15 07:51:43;;;;;;;26.83;13.68;;;-0.60;99.90;;;-2.04;100.00;96314.31;5013479;28;20416;-73
2022/12/15 07:54:11;;;;;;;26.23;13.85;;;-0.60;99.90;;;-2.01;100.00;96319.09;5024815;28;20411;-73
2022/12/15 07:56:37;;;;;;;21.63;12.00;;;-0.60;99.90;;;-1.99;100.00;96325.69;5021163;28;20421;-74
2022/12/15 07:59:03;;;;;;;22.13;12.10;;;-0.60;99.90;;;-1.97;100.00;96331.47;5012466;28;20420;-77
2022/12/15 08:01:29;;;;;;;27.48;13.60;;;-0.60;99.90;;;-1.96;100.00;96338.25;5013048;28;20408;-76
2022/12/15 08:03:55;;;;;;;27.53;13.70;;;-0.50;99.90;;;-1.95;100.00;96347.59;4995832;28;20986;-76
2022/12/15 08:06:21;;;;;;;26.13;13.57;;;-0.50;99.90;;;-1.93;100.00;96344.81;5021003;28;20414;-75
2022/12/15 08:08:49;;;;;;;26.00;13.48;;;-0.50;99.90;;;-1.91;100.00;96347.22;5023097;28;20801;-75
2022/12/15 08:11:15;;;;;;;25.33;14.32;;;-0.50;99.90;;;-1.90;100.00;96367.78;5020067;28;20422;-77
2022/12/15 08:13:42;;;;;;;26.40;13.70;;;-0.50;99.90;;;-1.89;100.00;96366.78;5023079;28;20926;-75
2022/12/15 08:16:09;;;;;;;21.17;12.13;;;-0.50;99.90;;;-1.88;100.00;96357.22;5020913;28;20411;-75
2022/12/15 08:18:35;;;;;;;25.52;13.05;;;-0.40;99.90;;;-1.87;100.00;96364.78;5021930;28;20904;-75
2022/12/15 08:21:02;;;;;;;24.17;13.00;;;-0.40;99.90;;;-1.85;100.00;96367.19;5021572;28;20451;-75
2022/12/15 08:23:28;;;;;;;23.83;12.73;;;-0.40;99.90;;;-1.83;100.00;96375.56;5019827;28;20487;-74
2022/12/15 08:26:02;;;;;;;22.20;12.30;;;-0.40;99.90;;;-1.82;100.00;96385.75;5017510;28;20420;-73
2022/12/15 08:28:28;;;;;;;27.63;14.10;;;-0.40;99.90;;;-1.80;100.00;96383.72;5013665;28;20404;-72
2022/12/15 08:30:54;;;;;;;31.10;15.38;;;-0.40;99.90;;;-1.78;100.00;96383.53;5013028;28;20431;-72
2022/12/15 08:33:20;;;;;;;27.20;13.85;;;-0.40;99.90;;;-1.75;100.00;96390.94;5012406;28;20408;-73
2022/12/15 08:35:46;;;;;;;24.93;13.17;;;-0.30;99.90;;;-1.74;100.00;96380.38;5013455;28;20431;-73
2022/12/15 08:38:12;;;;;;;23.60;12.82;;;-0.30;99.90;;;-1.70;100.00;96380.75;5013353;28;20413;-74
2022/12/15 08:40:38;;;;;;;23.73;12.32;;;-0.30;99.90;;;-1.67;100.00;96375.97;5012507;28;20399;-74
2022/12/15 08:43:05;;;;;;;28.73;14.05;;;-0.30;99.90;;;-1.64;100.00;96369.56;5012751;28;20417;-76
2022/12/15 08:45:31;;;;;;;31.35;15.45;;;-0.30;99.90;;;-1.62;100.00;96373.59;5000032;28;20413;-73
2022/12/15 08:47:56;;;;;;;29.63;15.03;;;-0.20;99.90;;;-1.60;100.00;96371.59;5018252;28;20435;-73
2022/12/15 08:50:22;;;;;;;24.17;13.63;;;-0.20;99.90;;;-1.58;100.00;96379.97;5010210;28;20422;-74
2022/12/15 08:52:48;;;;;;;26.17;14.25;;;-0.20;99.90;;;-1.54;100.00;96387.34;5010162;28;20415;-73
2022/12/15 08:55:14;;;;;;;27.08;13.95;;;-0.20;99.90;;;-1.51;100.00;96398.16;5012269;28;20408;-72
2022/12/15 08:57:40;;;;;;;26.05;13.35;;;-0.10;99.90;;;-1.49;100.00;96401.31;5012614;28;20412;-72
2022/12/15 09:00:09;;;;;;;27.30;13.27;;;-0.10;99.90;;;-1.47;100.00;96406.31;5012699;28;20442;-74
2022/12/15 09:02:35;;;;;;;21.80;11.82;;;-0.10;99.90;;;-1.45;100.00;96397.34;5011766;28;20488;-73
2022/12/15 09:05:01;;;;;;;24.55;12.73;;;-0.10;99.90;;;-1.43;100.00;96394.56;5010611;28;20520;-73
2022/12/15 09:07:27;;;;;;;24.45;12.95;;;-0.10;99.90;;;-1.41;100.00;96390.75;5011254;28;20413;-75
2022/12/15 09:09:53;;;;;;;28.58;13.98;;;0.00;99.90;;;-1.39;100.00;96377.56;5009311;28;20455;-74
2022/12/15 09:12:19;;;;;;;35.05;16.67;;;0.00;99.90;;;-1.37;100.00;96376.38;5010140;28;20432;-73
2022/12/15 09:14:45;;;;;;;31.90;15.32;;;0.00;99.90;;;-1.34;100.00;96373.38;5012178;28;20743;-73
2022/12/15 09:17:12;;;;;;;25.90;13.82;;;0.00;99.90;;;-1.30;100.00;96371.19;5012406;28;20408;-73
2022/12/15 09:19:38;;;;;;;24.73;12.80;;;0.10;99.90;;;-1.28;100.00;96379.56;5012490;28;20592;-74
2022/12/15 09:22:06;;;;;;;29.45;13.88;;;0.10;99.90;;;-1.26;100.00;96377.56;5008399;28;21067;-72
2022/12/15 09:24:32;;;;;;;34.50;15.68;;;0.10;99.90;;;-1.24;100.00;96376.38;5003196;28;20417;-73
2022/12/15 09:26:58;;;;;;;34.40;15.00;;;0.10;99.90;;;-1.23;100.00;96372.78;5003347;28;20463;-73
2022/12/15 09:29:24;;;;;;;30.13;14.77;;;0.10;99.90;;;-1.18;100.00;96369.56;5001336;28;20412;-74
2022/12/15 09:31:50;;;;;;;34.95;15.98;;;0.20;99.90;;;-1.14;100.00;96372.56;5005640;28;20442;-74
2022/12/15 09:34:17;;;;;;;29.40;15.07;;;0.20;99.90;;;-1.09;100.00;96370.16;5011515;28;20903;-74
2022/12/15 09:36:43;;;;;;;33.42;15.15;;;0.20;99.90;;;-1.05;100.00;96377.31;5010224;28;20887;-74
2022/12/15 09:39:10;;;;;;;41.70;16.20;;;0.30;99.90;;;-1.01;100.00;96382.91;5010167;28;20408;-73
2022/12/15 09:41:39;;;;;;;26.25;14.10;;;0.30;99.90;;;-0.99;100.00;96384.31;5011293;28;20401;-73
2022/12/15 09:44:12;;;;;;;28.38;14.52;;;0.40;99.90;;;-0.95;100.00;96374.31;5007632;28;20412;-74
2022/12/15 09:47:12;;;;;;;31.33;15.63;;;0.40;99.90;;;-0.92;100.00;96373.91;5011409;28;20475;-73
2022/12/15 09:49:53;;;;;;;36.28;16.80;;;0.40;99.90;;;-0.88;100.00;96381.09;4984240;28;20420;-74
2022/12/15 09:52:24;;;;;;;29.23;14.52;;;0.50;99.90;;;-0.84;100.00;96378.91;5010179;28;20393;-74
2022/12/15 09:54:50;;;;;;;33.78;15.23;;;0.50;99.90;;;-0.81;100.00;96371.47;5003787;28;20401;-73
2022/12/15 09:57:30;;;;;;;30.13;13.70;;;0.50;99.90;;;-0.76;100.00;96381.28;5011573;28;20408;-72
2022/12/15 10:00:20;;;;;;;34.70;15.95;;;0.60;99.90;;;-0.74;100.00;96383.63;5010024;28;20417;-73
2022/12/15 10:03:25;;;;;;;42.33;19.70;;;0.60;99.90;;;-0.77;100.00;96384.88;5010520;28;20555;-73
2022/12/15 10:06:04;;;;;;;41.80;19.38;;;0.60;99.90;;;-0.81;100.00;96381.88;4991665;28;20433;-73
2022/12/15 10:08:33;;;;;;;35.63;16.73;;;0.60;99.90;;;-0.82;100.00;96375.06;4996913;28;20441;-73
2022/12/15 10:11:03;;;;;;;31.88;15.32;;;0.50;99.90;;;-0.81;100.00;96378.47;5009385;28;20423;-73
2022/12/15 10:13:40;;;;;;;25.75;13.02;;;0.50;99.90;;;-0.82;100.00;96382.06;5009375;28;20419;-73
2022/12/15 10:16:19;;;;;;;26.83;12.80;;;0.50;99.90;;;-0.84;100.00;96379.69;5005142;28;20824;-73
2022/12/15 10:18:58;;;;;;;33.72;15.93;;;0.50;99.90;;;-0.86;100.00;96380.88;5003373;28;20432;-72
2022/12/15 10:21:27;;;;;;;34.80;14.98;;;0.50;99.90;;;-0.87;100.00;96369.69;4993865;28;20453;-73
2022/12/15 10:23:58;;;;;;;34.28;15.65;;;0.50;99.90;;;-0.86;100.00;96373.09;4991756;28;20445;-75
2022/12/15 10:26:30;;;;;;;38.30;15.90;;;0.50;99.90;;;-0.86;100.00;96388.69;5008646;28;20388;-74
2022/12/15 10:29:17;;;;;;;38.17;16.20;;;0.50;99.90;;;-0.87;100.00;96394.88;4993114;28;20420;-74
2022/12/15 10:31:52;;;;;;;51.65;21.60;;;0.50;99.90;;;-0.89;100.00;96387.28;5006973;28;20424;-74
2022/12/15 10:34:26;;;;;;;53.53;21.33;;;0.50;99.90;;;-0.88;100.00;96373.28;5004551;28;20425;-75
2022/12/15 10:36:55;;;;;;;55.28;23.48;;;0.50;99.90;;;-0.86;100.00;96349.72;5002954;28;20405;-74
2022/12/15 10:39:22;;;;;;;48.30;20.02;;;0.50;99.90;;;-0.84;100.00;96335.53;5007384;28;20839;-75
2022/12/15 10:42:15;;;;;;;35.03;16.10;;;0.50;99.90;;;-0.78;100.00;96328.72;5009926;28;20412;-75
2022/12/15 10:44:43;;;;;;;34.55;15.93;;;0.60;99.90;;;-0.74;100.00;96335.06;5008611;28;20448;-75
2022/12/15 10:47:18;;;;;;;45.07;18.37;;;0.60;99.90;;;-0.72;100.00;96346.06;5010620;28;20411;-75
2022/12/15 10:49:44;;;;;;;43.75;16.55;;;0.60;99.90;;;-0.70;100.00;96351.06;5010541;28;20408;-76
2022/12/15 10:52:31;;;;;;;37.42;16.33;;;0.60;99.90;;;-0.70;100.00;96351.88;5009075;28;20425;-76
2022/12/15 10:54:56;;;;;;;32.10;14.38;;;0.60;99.90;;;-0.71;100.00;96350.25;5010369;28;20413;-76
2022/12/15 10:57:26;;;;;;;29.25;13.50;;;0.60;99.90;;;-0.72;100.00;96338.28;5010026;28;21291;-76
2022/12/15 10:59:54;;;;;;;26.83;12.50;;;0.60;99.90;;;-0.71;100.00;96329.47;5008905;28;20790;-77
2022/12/15 11:02:32;;;;;;;28.30;13.25;;;0.60;99.90;;;-0.70;100.00;96327.69;5002319;28;20409;-76
2022/12/15 11:05:00;;;;;;;29.48;13.35;;;0.60;99.90;;;-0.69;100.00;96324.88;5006938;28;20417;-75
2022/12/15 11:07:37;;;;;;;31.13;14.02;;;0.70;99.90;;;-0.66;100.00;96323.66;5010491;28;20407;-74
2022/12/15 11:10:16;;;;;;;40.50;17.63;;;0.70;99.90;;;-0.64;100.00;96314.66;5010552;28;20451;-75
2022/12/15 11:12:52;;;;;;;39.03;17.05;;;0.70;99.90;;;-0.62;100.00;96317.06;5009440;28;20396;-75
2022/12/15 11:15:42;;;;;;;28.88;13.07;;;0.70;99.90;;;-0.59;100.00;96319.22;5010486;28;20397;-75
2022/12/15 11:18:29;;;;;;;28.73;12.98;;;0.70;99.90;;;-0.55;100.00;96307.44;5007539;28;20416;-75
2022/12/15 11:21:01;;;;;;;65.38;26.17;;;0.80;99.90;;;-0.54;100.00;96307.22;5006055;28;20408;-75
2022/12/15 11:23:44;;;;;;;56.10;22.57;;;0.80;99.90;;;-0.55;100.00;96305.63;5007872;28;20468;-74
2022/12/15 11:26:24;;;;;;;41.97;17.67;;;0.80;99.90;;;-0.55;100.00;96308.22;5010501;28;20416;-75
2022/12/15 11:28:58;;;;;;;36.92;15.10;;;0.80;99.90;;;-0.54;100.00;96296.03;5008468;28;20412;-74
2022/12/15 11:31:32;;;;;;;46.08;15.73;;;0.80;99.90;;;-0.53;100.00;96303.63;5007253;28;20423;-74
2022/12/15 11:33:58;;;;;;;36.95;15.02;;;0.80;99.90;;;-0.52;100.00;96294.00;5009651;28;20401;-75
2022/12/15 11:36:55;;;;;;;32.83;12.82;;;0.80;99.90;;;-0.53;100.00;96308.81;5011567;28;20451;-73
2022/12/15 11:39:40;;;;;;;31.63;12.90;;;0.80;99.90;;;-0.53;100.00;96310.63;5005857;28;20507;-73
2022/12/15 11:42:16;;;;;;;30.77;12.88;;;0.80;99.90;;;-0.53;100.00;96306.22;4994893;28;20402;-73
2022/12/15 11:44:56;;;;;;;28.80;12.23;;;0.80;99.90;;;-0.55;100.00;96304.81;4990190;28;20868;-74
2022/12/15 11:47:33;;;;;;;28.60;12.98;;;0.80;99.90;;;-0.54;100.00;96298.63;4990420;28;20513;-74
2022/12/15 11:50:18;;;;;;;38.80;13.07;;;0.80;99.90;;;-0.54;100.00;96294.22;4990428;28;20441;-74
2022/12/15 11:52:58;;;;;;;36.05;12.32;;;0.80;99.90;;;-0.55;100.00;96284.84;4971968;28;20446;-75
2022/12/15 11:55:40;;;;;;;24.77;10.95;;;0.80;99.90;;;-0.51;100.00;96282.59;4990375;28;20394;-76
2022/12/15 11:58:47;;;;;;;33.55;12.88;;;0.80;99.90;;;-0.51;100.00;96283.41;5008089;28;20491;-74
2022/12/15 12:01:35;;;;;;;36.13;13.00;;;0.80;99.90;;;-0.50;100.00;96269.41;5003450;28;20797;-74
2022/12/15 12:04:15;;;;;;;37.67;14.32;;;0.80;99.90;;;-0.50;100.00;96277.19;5003461;28;20440;-74
2022/12/15 12:06:50;;;;;;;38.17;14.38;;;0.80;99.90;;;-0.50;100.00;96268.59;5009814;28;20762;-74
2022/12/15 12:09:29;;;;;;;43.17;15.70;;;0.80;99.90;;;-0.46;100.00;96236.00;5009646;28;20400;-73
2022/12/15 12:12:10;;;;;;;47.35;18.02;;;0.90;99.90;;;-0.41;100.00;96243.97;5027565;22;20447;-76
2022/12/15 12:14:50;;;;;;;47.72;19.10;;;0.90;99.90;;;-0.38;100.00;96232.34;5068509;28;20445;-75
2022/12/15 12:17:28;;;;;;;52.47;19.10;;;0.90;99.90;;;-0.35;100.00;96237.91;5067899;28;20874;-74
2022/12/15 12:20:00;;;;;;;55.92;20.77;;;0.90;99.90;;;-0.33;100.00;96222.91;5067012;28;20446;-75
2022/12/15 12:22:33;;;;;;;55.85;19.00;;;0.90;99.90;;;-0.32;100.00;96221.91;5068177;28;20431;-75
2022/12/15 12:25:03;;;;;;;51.45;16.38;;;1.00;99.90;;;-0.26;100.00;96225.47;5051010;28;20392;-74
2022/12/15 12:27:39;;;;;;;52.88;16.35;;;1.00;99.90;;;-0.22;100.00;96231.81;5051100;28;20796;-74
2022/12/15 12:30:13;;;;;;;36.03;15.95;;;1.10;99.90;;;-0.21;100.00;96231.59;5069131;28;20396;-74
2022/12/15 12:32:50;;;;;;;43.15;15.93;;;1.10;99.90;;;-0.18;100.00;96228.59;5071916;28;20399;-73
2022/12/15 12:35:22;;;;;;;33.63;13.50;;;1.10;99.90;;;-0.13;100.00;96225.34;5072871;28;20391;-74